»·PEaware :: N15JG KDEN-KGLD

N15JG :: KDEN-KGLD

FLIGHT INFORMATION

Flight Status: Arrived
Operator: Privately registered:
United States
More flights under this callsign
Pilot: Anonymous 11047 (11047)
Aircraft: MOONEY M-20 201 202 205 220 ATS MSE
(M20P)
More flights by this aircraft type
Origin: KDEN Denver Intl
United States
Destination: KGLD Renner/Goodland Mun
United States
More flights between these airports :: More routes between these airports
Route: +
File this flight plan on PilotEdge
Remarks:
Altitude:
(Current/Filed)
7,500ft
Speed:
(Current/Filed)
0kts
Departed: 29-Apr-18 02:18 PM
Arrived: 29-Apr-18 03:07 PM
Distance/Time
Traveled:
140nm/0:49
Distance/Time
To Go:
Arrived

Flight Plot

Page will automatically refresh every two minutes.

Flight plan parsing failed; only flown route is shown


Map Options




Map Legend


Flown Route
Filed Route
Departure Airport
Arrival Airport
Navaid (VOR, NDB)
Fix

Horizontal Profiles

Position Reports

Time Latitude Longitude Heading Altitude Ground
Speed
29-Apr-18 14:16 39.760917 -104.265109 110 7566ft 161kts
29-Apr-18 14:17 39.749264 -104.207738 116 7445ft 167kts
29-Apr-18 14:18 39.734589 -104.151786 117 7506ft 160kts
29-Apr-18 14:19 39.726826 -104.093592 103 7501ft 170kts
29-Apr-18 14:20 39.722853 -104.032576 101 7457ft 172kts
29-Apr-18 14:21 39.721313 -103.972565 98 7609ft 164kts
29-Apr-18 14:22 39.725392 -103.912505 91 7603ft 170kts
29-Apr-18 14:23 39.731061 -103.851133 91 7543ft 172kts
29-Apr-18 14:24 39.731243 -103.791252 102 7623ft 162kts
29-Apr-18 14:25 39.727391 -103.732072 109 7626ft 162kts
29-Apr-18 14:26 39.719912 -103.675222 105 7575ft 167kts
29-Apr-18 14:27 39.714949 -103.615523 100 7559ft 170kts
29-Apr-18 14:28 39.712681 -103.554582 99 7515ft 171kts
29-Apr-18 14:29 39.706960 -103.494528 104 7483ft 168kts
29-Apr-18 14:30 39.700231 -103.434811 104 7432ft 169kts
29-Apr-18 14:31 39.701155 -103.377409 91 7689ft 162kts
29-Apr-18 14:32 39.703857 -103.320096 100 7483ft 166kts
29-Apr-18 14:33 39.700842 -103.261802 106 7433ft 159kts
29-Apr-18 14:34 39.695141 -103.205189 107 7420ft 157kts
29-Apr-18 14:35 39.684461 -103.149838 119 7452ft 152kts
29-Apr-18 14:36 39.669497 -103.096483 119 7463ft 159kts
29-Apr-18 14:37 39.653823 -103.042567 114 7535ft 161kts
29-Apr-18 14:38 39.641792 -102.984979 112 7464ft 165kts
29-Apr-18 14:39 39.630587 -102.927560 117 7494ft 161kts
29-Apr-18 14:40 39.616509 -102.872062 113 7494ft 163kts
29-Apr-18 14:41 39.601646 -102.816684 117 7480ft 163kts
29-Apr-18 14:42 39.582605 -102.766267 129 7575ft 150kts
29-Apr-18 14:43 39.569994 -102.713115 107 7561ft 162kts
29-Apr-18 14:44 39.563877 -102.654794 113 7526ft 160kts
29-Apr-18 14:45 39.551703 -102.600200 115 7500ft 160kts
29-Apr-18 14:46 39.541639 -102.544169 107 7507ft 161kts
29-Apr-18 14:47 39.539580 -102.484964 109 7453ft 163kts
29-Apr-18 14:48 39.524875 -102.432397 117 7489ft 156kts
29-Apr-18 14:49 39.507715 -102.381433 128 7459ft 151kts
29-Apr-18 14:50 39.493506 -102.330342 117 7435ft 156kts
29-Apr-18 14:51 39.479081 -102.278348 120 7524ft 151kts
29-Apr-18 14:52 39.465529 -102.225540 118 7567ft 152kts
29-Apr-18 14:53 39.449828 -102.173982 123 7505ft 153kts
29-Apr-18 14:54 39.432761 -102.124445 124 7556ft 154kts
29-Apr-18 14:55 39.420233 -102.069888 112 7515ft 158kts
29-Apr-18 14:56 39.410123 -102.013965 103 7460ft 164kts
29-Apr-18 14:57 39.404305 -101.956848 111 7201ft 157kts
29-Apr-18 14:58 39.395541 -101.902281 115 6605ft 150kts
29-Apr-18 14:59 39.384861 -101.852113 121 5839ft 139kts
29-Apr-18 15:00 39.374734 -101.802984 116 5045ft 142kts
29-Apr-18 15:01 39.365099 -101.755910 121 4592ft 122kts
29-Apr-18 15:02 39.355057 -101.719022 129 4564ft 102kts
29-Apr-18 15:03 39.370859 -101.688464 0 4534ft 171kts
29-Apr-18 15:04 39.402189 -101.700710 212 4118ft 80kts
29-Apr-18 15:05 39.385222 -101.700281 177 3749ft 43kts
29-Apr-18 15:06 39.374449 -101.700329 180 3638ft 30kts
29-Apr-18 15:07 39.371018 -101.700224 131 3645ft 13kts
29-Apr-18 15:08 39.371571 -101.703820 313 3647ft 9kts
29-Apr-18 15:09 39.371858 -101.704468 210 3647ft 0kts

Navigation Log

Ident Type
Flight plan parsing failed, navigation log unavailable